• Join FlightAware (Why Join?)
  • Login
  • US Flag 
09:25AM EDT


 

Airport Tracker/Info


-or-


 

Live Flight TrackerFlight Track Log ✈ UAL538 ✈ 01-May-2013 ✈ KSFO - KPHX

Flight Track Log - Related Links

Times and Time Zones

All times are in EDT time to prevent confusion due to time zone crossing. See the UAL538 flight status page for this flight to view local times or setup timezone preferences in your user account.

Time Position Orientation Groundspeed Altitude Reporting Facility
EDT Latitude Longitude Course Direction KTS MPH feet Rate Location/Type
03:57PM 37.6500 -122.3667 137° Southeast 147 169 1,500  Level Northern Cal TRACON
03:58PM 37.7000 -122.3833 345° North 217 250 3,800 2,640 Climbing Northern Cal TRACON
03:59PM 37.6833 -122.4500 252° West 259 298 6,600 2,820 Climbing Northern Cal TRACON
04:00PM 37.6167 -122.4833 202° Southwest 298 343 9,200 2,340 Climbing Northern Cal TRACON
04:00PM 37.5992 -122.4817 176° South 287 330 9,800 1,920 Climbing Oakland Center
04:01PM 37.5200 -122.4344 155° Southeast 330 380 11,900 2,580 Climbing Oakland Center
04:02PM 37.1988 -122.0125 137° Southeast  Level FlightAware Approximate
04:02PM 37.4442 -122.3217 130° Southeast 353 406 15,100  Level Oakland Center
04:03PM 37.3794 -122.2225 129° Southeast 364 419 17,700 2,220 Climbing Oakland Center
04:04PM 37.3103 -122.1175 130° Southeast 385 443 19,700 2,100 Climbing Oakland Center
04:05PM 37.2403 -122.0086 129° Southeast 399 459 22,100 1,860 Climbing Oakland Center
04:06PM 37.1650 -121.8981 130° Southeast 414 476 23,600 1,560 Climbing Oakland Center
04:07PM 37.0869 -121.7814 130° Southeast 433 498 25,300 1,620 Climbing Oakland Center
04:08PM 37.0078 -121.6642 130° Southeast 440 506 27,000 960 Climbing Oakland Center
04:09PM 36.9272 -121.5444 130° Southeast 449 517 27,300 1,080 Climbing Oakland Center
04:10PM 36.8306 -121.3989 130° Southeast 455 524 29,200 1,620 Climbing Oakland Center
04:12PM 36.7503 -121.2786 130° Southeast 463 533 30,700 1,500 Climbing Oakland Center
04:13PM 36.6650 -121.1569 131° Southeast 464 534 32,300 1,560 Climbing Oakland Center
04:14PM 36.5808 -121.0342 130° Southeast 464 534 33,900 1,260 Climbing Oakland Center
04:15PM 36.4978 -120.9128 130° Southeast 461 531 34,900 480 Climbing Oakland Center
04:16PM 36.4150 -120.7914 130° Southeast 457 526 34,900  Level Oakland Center
04:17PM 36.3319 -120.6694 130° Southeast 459 528 34,900  Level Oakland Center
04:18PM 36.2469 -120.5494 131° Southeast 460 529 35,000  Climbing Oakland Center
04:19PM 36.1625 -120.4289 131° Southeast 462 532 35,000  Level Oakland Center
04:20PM 36.0619 -120.2844 131° Southeast 463 533 35,000  Level Oakland Center
04:21PM 35.9775 -120.1636 131° Southeast 462 532 35,000  Level Oakland Center
04:22PM 35.8933 -120.0439 131° Southeast 460 529 35,000 -60 Level Oakland Center
04:23PM 35.8075 -119.9231 131° Southeast 465 535 34,900  Descending Oakland Center
04:24PM 35.7228 -119.8011 131° Southeast 466 536 35,000  Climbing Oakland Center
04:25PM 35.6450 -119.6744 127° Southeast 462 532 35,000  Level Oakland Center
04:26PM 35.5669 -119.5478 127° Southeast 464 534 35,000  Level Oakland Center
04:27PM 35.4886 -119.4214 127° Southeast 464 534 35,000  Level Oakland Center
04:28PM 35.4428 -119.3467 127° Southeast 463 533 35,000 720 Level Los Angeles Center
04:29PM 35.3503 -119.1967 127° Southeast 462 532 36,300 960 Climbing Los Angeles Center
04:30PM 35.2736 -119.0719 127° Southeast 458 527 37,000 300 Climbing Los Angeles Center
04:31PM 35.1964 -118.9494 128° Southeast 456 525 37,000  Level Los Angeles Center
04:32PM 35.1178 -118.8264 128° Southeast 459 528 37,000  Level Los Angeles Center
04:33PM 35.0400 -118.7033 128° Southeast 458 527 37,000  Level Los Angeles Center
04:34PM 34.9464 -118.5547 128° Southeast 459 528 37,000  Level Los Angeles Center
04:35PM 34.8600 -118.4214 128° Southeast 459 528 37,000  Level Los Angeles Center
04:36PM 34.7819 -118.2992 128° Southeast 460 529 37,000  Level Los Angeles Center
04:37PM 34.6892 -118.1542 128° Southeast 456 525 37,000  Level Los Angeles Center
04:38PM 34.6225 -118.0242 122° Southeast 458 527 37,000  Level Los Angeles Center
04:39PM 34.5775 -117.8842 111° Southeast 453 521 37,000  Level Los Angeles Center
04:40PM 34.5361 -117.7436 110° East 449 517 37,000  Level Los Angeles Center
04:41PM 34.4847 -117.5733 110° East 452 520 37,000  Level Los Angeles Center
04:42PM 34.4406 -117.4300 110° East 455 524 37,000  Level Los Angeles Center
04:43PM 34.3981 -117.2889 110° East 450 518 37,000  Level Los Angeles Center
04:44PM 34.3542 -117.1453 110° East 453 521 37,000  Level Los Angeles Center
04:45PM 34.3111 -117.0033 110° East 452 520 37,000  Level Los Angeles Center
04:46PM 34.2658 -116.8608 111° Southeast 455 524 37,000  Level Los Angeles Center
04:47PM 34.2125 -116.6897 111° Southeast 455 524 37,000  Level Los Angeles Center
04:49PM 34.1678 -116.5486 111° Southeast 452 520 37,000  Level Los Angeles Center
04:50PM 34.1164 -116.3775 110° East 450 518 37,000 -60 Level Los Angeles Center
04:51PM 34.0736 -116.2358 110° East 449 517 36,900  Descending Los Angeles Center
04:52PM 34.0286 -116.0931 111° Southeast 453 521 37,000  Climbing Los Angeles Center
04:53PM 33.9736 -115.9214 111° Southeast 456 525 37,000  Level Los Angeles Center
04:54PM 33.9264 -115.7758 111° Southeast 462 532 37,000 -60 Level Los Angeles Center
04:55PM 33.8808 -115.6336 111° Southeast 456 525 36,900 -60 Descending Los Angeles Center
04:56PM 33.8350 -115.4939 112° Southeast 450 518 36,900  Level Los Angeles Center
04:57PM 33.7889 -115.3506 111° Southeast 456 525 37,000  Climbing Los Angeles Center
04:58PM 33.7528 -115.2381 111° Southeast 454 522 37,000  Level Los Angeles Center
04:59PM 33.6969 -115.0667 111° Southeast 457 526 37,000 -840 Level Los Angeles Center
05:00PM 33.6394 -114.8964 112° Southeast 457 526 35,200 -1,800 Descending Los Angeles Center
05:01PM 33.5814 -114.7025 110° East 441 507 32,600 -1,920 Descending Los Angeles Center
05:03PM 33.5586 -114.5639 101° East 426 490 30,900 -1,740 Descending Los Angeles Center
05:03PM 33.5467 -114.4869 101° East 422 486 30,000 -1,740 Descending Albuquerque Center
05:04PM 33.5183 -114.3536 104° East 417 480 28,300 -1,680 Descending Albuquerque Center
05:05PM 33.4897 -114.2114 104° East 431 496 26,600 -1,620 Descending Albuquerque Center
05:06PM 33.4611 -114.0703 104° East 435 501 25,000 -780 Descending Albuquerque Center
05:07PM 33.4342 -113.9331 103° East 428 493 25,000 -600 Level Albuquerque Center
05:08PM 33.4069 -113.7967 103° East 423 487 23,800 -1,680 Descending Albuquerque Center
05:09PM 33.3808 -113.6642 103° East 413 475 21,600 -1,920 Descending Albuquerque Center
05:10PM 33.3475 -113.5106 105° East 401 461 19,900 -1,260 Descending Albuquerque Center
05:11PM 33.3228 -113.3872 103° East 387 445 19,000 -960 Descending Albuquerque Center
05:12PM 33.2992 -113.2664 103° East 377 434 18,000 -1,140 Descending Albuquerque Center
05:13PM 33.2719 -113.1425 105° East 381 438 16,700 -1,020 Descending Albuquerque Center
05:14PM 33.2753 -113.0208 88° East 359 413 15,900 -780 Descending Albuquerque Center
05:15PM 33.2800 -112.9033 87° East 352 405 15,200 -480 Descending Albuquerque Center
05:16PM 33.2811 -112.7919 89° East 341 392 15,000 -360 Descending Albuquerque Center
05:17PM 33.2842 -112.6608 88° East 332 382 14,500 -840 Descending Albuquerque Center
05:18PM 33.2869 -112.5533 88° East 320 368 13,300 -1,200 Descending Albuquerque Center
05:19PM 33.2908 -112.4483 87° East 318 366 12,100 -1,200 Descending Albuquerque Center
05:21PM 33.2939 -112.3458 88° East 312 359 10,900 -900 Descending Albuquerque Center
05:22PM 33.2986 -112.2517 87° East 288 331 10,300 -720 Descending Albuquerque Center
05:23PM 33.3072 -112.1667 83° East 263 303 9,500 -720 Descending Albuquerque Center
05:24PM 33.3128 -112.0836 85° East 255 293 8,900 -1,020 Descending Albuquerque Center
05:25PM 33.3394 -111.9867 72° East 259 298 7,400 -1,140 Descending Albuquerque Center
05:26PM 33.3447 -111.9081 85° East 238 274 6,600 -1,020 Descending Albuquerque Center
05:27PM 33.3544 -111.8331 81° East 241 277 5,300 -1,260 Descending Albuquerque Center